sensor_id;sensor_type;location;lat;lon;timestamp;P1;durP1;ratioP1;P2;durP2;ratioP2
8399;SDS011;4237;47.030;15.396;2022-07-31T00:00:22;2.13;;;1.70;;
8399;SDS011;4237;47.030;15.396;2022-07-31T00:02:51;4.10;;;1.93;;
8399;SDS011;4237;47.030;15.396;2022-07-31T00:05:20;1.57;;;1.47;;
8399;SDS011;4237;47.030;15.396;2022-07-31T00:07:48;2.70;;;1.70;;
8399;SDS011;4237;47.030;15.396;2022-07-31T00:10:17;1.50;;;1.40;;
8399;SDS011;4237;47.030;15.396;2022-07-31T00:12:45;1.63;;;1.50;;
8399;SDS011;4237;47.030;15.396;2022-07-31T00:15:13;2.23;;;1.60;;
8399;SDS011;4237;47.030;15.396;2022-07-31T00:17:42;2.37;;;1.60;;
8399;SDS011;4237;47.030;15.396;2022-07-31T00:20:12;1.77;;;1.50;;
8399;SDS011;4237;47.030;15.396;2022-07-31T00:22:40;1.97;;;1.30;;
8399;SDS011;4237;47.030;15.396;2022-07-31T00:25:09;6.90;;;1.60;;
8399;SDS011;4237;47.030;15.396;2022-07-31T00:27:38;2.80;;;2.30;;
8399;SDS011;4237;47.030;15.396;2022-07-31T00:30:07;3.03;;;2.70;;
8399;SDS011;4237;47.030;15.396;2022-07-31T00:32:36;4.00;;;2.63;;
8399;SDS011;4237;47.030;15.396;2022-07-31T00:35:04;3.63;;;2.80;;
8399;SDS011;4237;47.030;15.396;2022-07-31T00:37:36;3.37;;;2.90;;
8399;SDS011;4237;47.030;15.396;2022-07-31T00:40:04;4.07;;;2.70;;
8399;SDS011;4237;47.030;15.396;2022-07-31T00:42:33;5.33;;;2.93;;
8399;SDS011;4237;47.030;15.396;2022-07-31T00:45:03;4.10;;;2.60;;
8399;SDS011;4237;47.030;15.396;2022-07-31T00:47:31;5.47;;;2.70;;
8399;SDS011;4237;47.030;15.396;2022-07-31T00:50:00;3.00;;;2.70;;
8399;SDS011;4237;47.030;15.396;2022-07-31T00:52:28;4.43;;;2.50;;
8399;SDS011;4237;47.030;15.396;2022-07-31T00:54:56;2.73;;;2.20;;
8399;SDS011;4237;47.030;15.396;2022-07-31T00:57:24;3.30;;;1.90;;
8399;SDS011;4237;47.030;15.396;2022-07-31T00:59:52;2.30;;;2.10;;
8399;SDS011;4237;47.030;15.396;2022-07-31T01:02:20;2.50;;;2.30;;
8399;SDS011;4237;47.030;15.396;2022-07-31T01:04:49;2.63;;;1.93;;
8399;SDS011;4237;47.030;15.396;2022-07-31T01:07:17;2.67;;;2.40;;
8399;SDS011;4237;47.030;15.396;2022-07-31T01:09:45;2.70;;;1.83;;
8399;SDS011;4237;47.030;15.396;2022-07-31T01:12:15;2.57;;;2.17;;
8399;SDS011;4237;47.030;15.396;2022-07-31T01:14:46;4.07;;;2.40;;
8399;SDS011;4237;47.030;15.396;2022-07-31T01:17:15;3.13;;;2.20;;
8399;SDS011;4237;47.030;15.396;2022-07-31T01:19:44;5.37;;;2.50;;
8399;SDS011;4237;47.030;15.396;2022-07-31T01:54:33;2.40;;;2.20;;
8399;SDS011;4237;47.030;15.396;2022-07-31T01:57:02;3.40;;;2.60;;
8399;SDS011;4237;47.030;15.396;2022-07-31T01:59:32;5.77;;;2.60;;
8399;SDS011;4237;47.030;15.396;2022-07-31T02:02:01;2.87;;;2.57;;
8399;SDS011;4237;47.030;15.396;2022-07-31T02:04:30;3.27;;;2.93;;
8399;SDS011;4237;47.030;15.396;2022-07-31T02:07:00;4.83;;;2.30;;
8399;SDS011;4237;47.030;15.396;2022-07-31T02:09:30;3.37;;;2.63;;
8399;SDS011;4237;47.030;15.396;2022-07-31T02:12:00;3.80;;;2.60;;
8399;SDS011;4237;47.030;15.396;2022-07-31T02:14:28;3.43;;;2.63;;
8399;SDS011;4237;47.030;15.396;2022-07-31T02:16:57;3.03;;;2.70;;
8399;SDS011;4237;47.030;15.396;2022-07-31T02:19:26;2.87;;;2.67;;
8399;SDS011;4237;47.030;15.396;2022-07-31T02:21:56;2.70;;;2.50;;
8399;SDS011;4237;47.030;15.396;2022-07-31T02:24:25;4.33;;;2.73;;
8399;SDS011;4237;47.030;15.396;2022-07-31T02:26:54;2.67;;;2.40;;
8399;SDS011;4237;47.030;15.396;2022-07-31T02:29:23;2.73;;;2.40;;
8399;SDS011;4237;47.030;15.396;2022-07-31T02:31:53;5.80;;;2.73;;
8399;SDS011;4237;47.030;15.396;2022-07-31T02:34:23;3.10;;;2.90;;
8399;SDS011;4237;47.030;15.396;2022-07-31T02:36:52;4.43;;;3.00;;
8399;SDS011;4237;47.030;15.396;2022-07-31T02:39:20;3.67;;;2.63;;
8399;SDS011;4237;47.030;15.396;2022-07-31T02:41:49;2.83;;;2.63;;
8399;SDS011;4237;47.030;15.396;2022-07-31T02:44:19;3.63;;;3.00;;
8399;SDS011;4237;47.030;15.396;2022-07-31T02:46:47;5.73;;;2.90;;
8399;SDS011;4237;47.030;15.396;2022-07-31T02:49:16;5.03;;;3.00;;
8399;SDS011;4237;47.030;15.396;2022-07-31T02:51:45;3.30;;;3.00;;
8399;SDS011;4237;47.030;15.396;2022-07-31T02:54:14;3.10;;;2.80;;
8399;SDS011;4237;47.030;15.396;2022-07-31T02:56:43;7.40;;;3.10;;
8399;SDS011;4237;47.030;15.396;2022-07-31T02:59:13;3.67;;;3.10;;
8399;SDS011;4237;47.030;15.396;2022-07-31T03:01:41;5.67;;;3.40;;
8399;SDS011;4237;47.030;15.396;2022-07-31T03:04:09;5.27;;;3.13;;
8399;SDS011;4237;47.030;15.396;2022-07-31T03:06:38;3.97;;;3.10;;
8399;SDS011;4237;47.030;15.396;2022-07-31T03:09:06;3.60;;;3.27;;
8399;SDS011;4237;47.030;15.396;2022-07-31T03:11:34;4.60;;;3.10;;
8399;SDS011;4237;47.030;15.396;2022-07-31T03:14:03;3.00;;;2.80;;
8399;SDS011;4237;47.030;15.396;2022-07-31T03:16:32;4.10;;;3.73;;
8399;SDS011;4237;47.030;15.396;2022-07-31T03:19:02;3.50;;;3.20;;
8399;SDS011;4237;47.030;15.396;2022-07-31T03:21:31;3.70;;;3.37;;
8399;SDS011;4237;47.030;15.396;2022-07-31T03:23:59;3.57;;;3.27;;
8399;SDS011;4237;47.030;15.396;2022-07-31T03:26:28;4.57;;;3.00;;
8399;SDS011;4237;47.030;15.396;2022-07-31T03:28:58;3.93;;;3.30;;
8399;SDS011;4237;47.030;15.396;2022-07-31T03:31:27;3.57;;;3.23;;
8399;SDS011;4237;47.030;15.396;2022-07-31T03:33:57;3.23;;;3.03;;
8399;SDS011;4237;47.030;15.396;2022-07-31T03:36:25;3.27;;;2.97;;
8399;SDS011;4237;47.030;15.396;2022-07-31T03:38:53;4.40;;;3.03;;
8399;SDS011;4237;47.030;15.396;2022-07-31T03:41:22;4.75;;;3.60;;
8399;SDS011;4237;47.030;15.396;2022-07-31T03:43:50;3.30;;;3.00;;
8399;SDS011;4237;47.030;15.396;2022-07-31T03:46:20;4.03;;;3.30;;
8399;SDS011;4237;47.030;15.396;2022-07-31T03:48:48;4.77;;;3.43;;
8399;SDS011;4237;47.030;15.396;2022-07-31T03:51:18;4.83;;;3.20;;
8399;SDS011;4237;47.030;15.396;2022-07-31T03:53:46;4.17;;;3.20;;
8399;SDS011;4237;47.030;15.396;2022-07-31T03:56:15;4.23;;;3.03;;
8399;SDS011;4237;47.030;15.396;2022-07-31T03:58:44;4.90;;;2.90;;
8399;SDS011;4237;47.030;15.396;2022-07-31T04:01:13;4.93;;;3.37;;
8399;SDS011;4237;47.030;15.396;2022-07-31T04:03:42;4.67;;;3.10;;
8399;SDS011;4237;47.030;15.396;2022-07-31T04:06:10;6.43;;;3.77;;
8399;SDS011;4237;47.030;15.396;2022-07-31T04:08:38;3.97;;;3.57;;
8399;SDS011;4237;47.030;15.396;2022-07-31T04:11:07;4.00;;;3.10;;
8399;SDS011;4237;47.030;15.396;2022-07-31T04:13:35;3.77;;;3.40;;
8399;SDS011;4237;47.030;15.396;2022-07-31T04:16:04;5.73;;;3.30;;
8399;SDS011;4237;47.030;15.396;2022-07-31T04:18:32;4.43;;;2.80;;
8399;SDS011;4237;47.030;15.396;2022-07-31T04:21:00;3.80;;;3.33;;
8399;SDS011;4237;47.030;15.396;2022-07-31T04:23:28;3.40;;;3.10;;
8399;SDS011;4237;47.030;15.396;2022-07-31T04:25:56;3.67;;;2.83;;
8399;SDS011;4237;47.030;15.396;2022-07-31T04:28:25;3.23;;;2.93;;
8399;SDS011;4237;47.030;15.396;2022-07-31T04:30:53;5.30;;;2.97;;
8399;SDS011;4237;47.030;15.396;2022-07-31T04:33:21;3.10;;;2.90;;
8399;SDS011;4237;47.030;15.396;2022-07-31T04:35:50;3.37;;;3.07;;
8399;SDS011;4237;47.030;15.396;2022-07-31T04:38:19;3.30;;;3.00;;
8399;SDS011;4237;47.030;15.396;2022-07-31T04:40:48;3.03;;;2.83;;
8399;SDS011;4237;47.030;15.396;2022-07-31T04:43:16;3.60;;;2.97;;
8399;SDS011;4237;47.030;15.396;2022-07-31T04:45:45;3.20;;;2.50;;
8399;SDS011;4237;47.030;15.396;2022-07-31T04:48:14;5.13;;;2.90;;
8399;SDS011;4237;47.030;15.396;2022-07-31T04:50:42;3.10;;;2.90;;
8399;SDS011;4237;47.030;15.396;2022-07-31T04:53:10;3.47;;;3.17;;
8399;SDS011;4237;47.030;15.396;2022-07-31T04:55:38;4.87;;;3.03;;
8399;SDS011;4237;47.030;15.396;2022-07-31T04:58:07;3.60;;;3.20;;
8399;SDS011;4237;47.030;15.396;2022-07-31T05:00:36;3.83;;;3.00;;
8399;SDS011;4237;47.030;15.396;2022-07-31T05:03:06;4.17;;;3.20;;
8399;SDS011;4237;47.030;15.396;2022-07-31T05:05:34;3.57;;;2.80;;
8399;SDS011;4237;47.030;15.396;2022-07-31T05:08:02;2.93;;;2.57;;
8399;SDS011;4237;47.030;15.396;2022-07-31T05:10:30;4.67;;;2.80;;
8399;SDS011;4237;47.030;15.396;2022-07-31T05:13:16;3.70;;;2.67;;
8399;SDS011;4237;47.030;15.396;2022-07-31T05:15:44;3.00;;;2.70;;
8399;SDS011;4237;47.030;15.396;2022-07-31T05:18:12;3.40;;;3.10;;
8399;SDS011;4237;47.030;15.396;2022-07-31T05:20:41;3.33;;;2.87;;
8399;SDS011;4237;47.030;15.396;2022-07-31T05:23:09;5.20;;;3.23;;
8399;SDS011;4237;47.030;15.396;2022-07-31T05:25:38;5.60;;;3.00;;
8399;SDS011;4237;47.030;15.396;2022-07-31T05:28:06;4.30;;;3.03;;
8399;SDS011;4237;47.030;15.396;2022-07-31T05:30:34;3.10;;;2.90;;
8399;SDS011;4237;47.030;15.396;2022-07-31T05:33:02;3.43;;;3.00;;
8399;SDS011;4237;47.030;15.396;2022-07-31T05:35:32;4.00;;;2.70;;
8399;SDS011;4237;47.030;15.396;2022-07-31T05:38:01;6.77;;;3.03;;
8399;SDS011;4237;47.030;15.396;2022-07-31T05:40:29;4.77;;;3.07;;
8399;SDS011;4237;47.030;15.396;2022-07-31T05:42:57;6.53;;;3.20;;
8399;SDS011;4237;47.030;15.396;2022-07-31T05:45:25;3.70;;;3.13;;
8399;SDS011;4237;47.030;15.396;2022-07-31T05:47:53;3.77;;;2.90;;
8399;SDS011;4237;47.030;15.396;2022-07-31T05:50:22;3.00;;;2.53;;
8399;SDS011;4237;47.030;15.396;2022-07-31T05:52:50;2.93;;;2.70;;
8399;SDS011;4237;47.030;15.396;2022-07-31T05:55:18;5.13;;;3.33;;
8399;SDS011;4237;47.030;15.396;2022-07-31T05:57:46;7.43;;;2.70;;
8399;SDS011;4237;47.030;15.396;2022-07-31T06:00:15;5.27;;;3.03;;
8399;SDS011;4237;47.030;15.396;2022-07-31T06:02:43;5.50;;;3.20;;
8399;SDS011;4237;47.030;15.396;2022-07-31T06:05:11;7.03;;;2.63;;
8399;SDS011;4237;47.030;15.396;2022-07-31T06:07:40;5.67;;;2.43;;
8399;SDS011;4237;47.030;15.396;2022-07-31T06:10:08;2.97;;;2.50;;
8399;SDS011;4237;47.030;15.396;2022-07-31T06:12:36;3.80;;;2.77;;
8399;SDS011;4237;47.030;15.396;2022-07-31T06:15:04;4.07;;;2.77;;
8399;SDS011;4237;47.030;15.396;2022-07-31T06:17:33;2.80;;;2.60;;
8399;SDS011;4237;47.030;15.396;2022-07-31T06:20:01;4.33;;;2.43;;
8399;SDS011;4237;47.030;15.396;2022-07-31T06:22:29;4.40;;;2.90;;
8399;SDS011;4237;47.030;15.396;2022-07-31T06:24:57;4.00;;;2.47;;
8399;SDS011;4237;47.030;15.396;2022-07-31T06:27:25;4.10;;;2.40;;
8399;SDS011;4237;47.030;15.396;2022-07-31T06:29:54;3.93;;;2.10;;
8399;SDS011;4237;47.030;15.396;2022-07-31T06:32:23;3.90;;;2.33;;
8399;SDS011;4237;47.030;15.396;2022-07-31T06:34:52;5.43;;;2.40;;
8399;SDS011;4237;47.030;15.396;2022-07-31T06:37:20;2.40;;;2.20;;
8399;SDS011;4237;47.030;15.396;2022-07-31T06:39:48;3.37;;;2.10;;
8399;SDS011;4237;47.030;15.396;2022-07-31T06:42:22;2.40;;;1.98;;
8399;SDS011;4237;47.030;15.396;2022-07-31T06:44:46;2.47;;;2.25;;
8399;SDS011;4237;47.030;15.396;2022-07-31T06:47:15;2.55;;;1.95;;
8399;SDS011;4237;47.030;15.396;2022-07-31T06:49:43;3.15;;;1.90;;
8399;SDS011;4237;47.030;15.396;2022-07-31T06:52:12;2.98;;;2.15;;
8399;SDS011;4237;47.030;15.396;2022-07-31T06:54:40;1.75;;;1.65;;
8399;SDS011;4237;47.030;15.396;2022-07-31T06:57:10;3.62;;;1.98;;
8399;SDS011;4237;47.030;15.396;2022-07-31T06:59:39;2.12;;;1.70;;
8399;SDS011;4237;47.030;15.396;2022-07-31T07:02:07;3.50;;;1.77;;
8399;SDS011;4237;47.030;15.396;2022-07-31T07:04:35;2.17;;;1.92;;
8399;SDS011;4237;47.030;15.396;2022-07-31T07:07:04;2.02;;;1.62;;
8399;SDS011;4237;47.030;15.396;2022-07-31T07:09:33;3.55;;;1.60;;
8399;SDS011;4237;47.030;15.396;2022-07-31T07:12:01;3.55;;;2.10;;
8399;SDS011;4237;47.030;15.396;2022-07-31T07:14:30;2.10;;;1.80;;
8399;SDS011;4237;47.030;15.396;2022-07-31T07:17:01;2.42;;;2.10;;
8399;SDS011;4237;47.030;15.396;2022-07-31T07:19:28;2.15;;;1.75;;
8399;SDS011;4237;47.030;15.396;2022-07-31T07:21:56;2.52;;;1.72;;
8399;SDS011;4237;47.030;15.396;2022-07-31T07:24:25;3.37;;;1.90;;
8399;SDS011;4237;47.030;15.396;2022-07-31T07:26:53;2.15;;;1.90;;
8399;SDS011;4237;47.030;15.396;2022-07-31T07:29:21;1.75;;;1.60;;
8399;SDS011;4237;47.030;15.396;2022-07-31T07:31:50;1.92;;;1.70;;
8399;SDS011;4237;47.030;15.396;2022-07-31T07:34:18;4.62;;;1.82;;
8399;SDS011;4237;47.030;15.396;2022-07-31T07:36:47;2.98;;;1.87;;
8399;SDS011;4237;47.030;15.396;2022-07-31T07:39:15;2.87;;;1.82;;
8399;SDS011;4237;47.030;15.396;2022-07-31T07:41:43;1.70;;;1.60;;
8399;SDS011;4237;47.030;15.396;2022-07-31T07:44:11;4.35;;;1.70;;
8399;SDS011;4237;47.030;15.396;2022-07-31T07:46:39;2.35;;;1.30;;
8399;SDS011;4237;47.030;15.396;2022-07-31T07:49:08;1.65;;;1.50;;
8399;SDS011;4237;47.030;15.396;2022-07-31T07:51:36;1.90;;;1.72;;
8399;SDS011;4237;47.030;15.396;2022-07-31T07:54:04;1.75;;;1.65;;
8399;SDS011;4237;47.030;15.396;2022-07-31T07:56:32;4.50;;;2.08;;
8399;SDS011;4237;47.030;15.396;2022-07-31T07:59:01;2.62;;;1.95;;
8399;SDS011;4237;47.030;15.396;2022-07-31T08:01:30;2.22;;;1.65;;
8399;SDS011;4237;47.030;15.396;2022-07-31T08:03:58;1.87;;;1.70;;
8399;SDS011;4237;47.030;15.396;2022-07-31T08:06:26;2.00;;;1.80;;
8399;SDS011;4237;47.030;15.396;2022-07-31T08:08:54;2.60;;;1.65;;
8399;SDS011;4237;47.030;15.396;2022-07-31T08:11:22;1.98;;;1.70;;
8399;SDS011;4237;47.030;15.396;2022-07-31T08:13:51;3.10;;;1.70;;
8399;SDS011;4237;47.030;15.396;2022-07-31T08:16:19;2.85;;;1.60;;
8399;SDS011;4237;47.030;15.396;2022-07-31T08:18:47;4.78;;;1.80;;
8399;SDS011;4237;47.030;15.396;2022-07-31T08:21:16;4.03;;;1.72;;
8399;SDS011;4237;47.030;15.396;2022-07-31T08:23:44;2.65;;;1.60;;
8399;SDS011;4237;47.030;15.396;2022-07-31T08:26:13;1.70;;;1.60;;
8399;SDS011;4237;47.030;15.396;2022-07-31T08:28:41;1.70;;;1.60;;
8399;SDS011;4237;47.030;15.396;2022-07-31T08:31:09;2.33;;;1.75;;
8399;SDS011;4237;47.030;15.396;2022-07-31T08:33:38;2.40;;;1.72;;
8399;SDS011;4237;47.030;15.396;2022-07-31T08:36:06;1.60;;;1.50;;
8399;SDS011;4237;47.030;15.396;2022-07-31T08:38:35;3.02;;;1.90;;
8399;SDS011;4237;47.030;15.396;2022-07-31T08:41:05;2.15;;;1.57;;
8399;SDS011;4237;47.030;15.396;2022-07-31T08:43:33;2.02;;;1.80;;
8399;SDS011;4237;47.030;15.396;2022-07-31T08:46:01;2.50;;;1.67;;
8399;SDS011;4237;47.030;15.396;2022-07-31T08:48:31;1.57;;;1.47;;
8399;SDS011;4237;47.030;15.396;2022-07-31T08:51:01;2.40;;;1.60;;
8399;SDS011;4237;47.030;15.396;2022-07-31T08:53:30;2.02;;;1.55;;
8399;SDS011;4237;47.030;15.396;2022-07-31T08:55:59;1.98;;;1.80;;
8399;SDS011;4237;47.030;15.396;2022-07-31T08:58:28;2.17;;;1.98;;
8399;SDS011;4237;47.030;15.396;2022-07-31T09:00:56;2.58;;;1.82;;
8399;SDS011;4237;47.030;15.396;2022-07-31T09:03:24;10.82;;;1.82;;
8399;SDS011;4237;47.030;15.396;2022-07-31T09:05:52;2.33;;;2.12;;
8399;SDS011;4237;47.030;15.396;2022-07-31T09:08:21;1.87;;;1.72;;
8399;SDS011;4237;47.030;15.396;2022-07-31T09:11:00;2.58;;;2.00;;
8399;SDS011;4237;47.030;15.396;2022-07-31T09:13:20;2.62;;;1.80;;
8399;SDS011;4237;47.030;15.396;2022-07-31T09:15:48;3.35;;;1.82;;
8399;SDS011;4237;47.030;15.396;2022-07-31T09:18:19;4.45;;;1.87;;
8399;SDS011;4237;47.030;15.396;2022-07-31T09:20:55;3.60;;;2.05;;
8399;SDS011;4237;47.030;15.396;2022-07-31T09:23:24;3.37;;;1.70;;
8399;SDS011;4237;47.030;15.396;2022-07-31T09:26:02;6.67;;;2.00;;
8399;SDS011;4237;47.030;15.396;2022-07-31T09:28:35;1.87;;;1.60;;
8399;SDS011;4237;47.030;15.396;2022-07-31T09:31:05;2.72;;;2.45;;
8399;SDS011;4237;47.030;15.396;2022-07-31T09:33:33;3.87;;;1.57;;
8399;SDS011;4237;47.030;15.396;2022-07-31T09:36:04;1.70;;;1.60;;
8399;SDS011;4237;47.030;15.396;2022-07-31T09:38:36;1.70;;;1.60;;
8399;SDS011;4237;47.030;15.396;2022-07-31T09:41:11;3.80;;;1.70;;
8399;SDS011;4237;47.030;15.396;2022-07-31T09:43:40;2.00;;;1.80;;
8399;SDS011;4237;47.030;15.396;2022-07-31T09:46:09;1.52;;;1.40;;
8399;SDS011;4237;47.030;15.396;2022-07-31T09:48:37;3.80;;;1.60;;
8399;SDS011;4237;47.030;15.396;2022-07-31T09:51:06;3.75;;;1.70;;
8399;SDS011;4237;47.030;15.396;2022-07-31T09:53:44;2.17;;;1.72;;
8399;SDS011;4237;47.030;15.396;2022-07-31T09:56:11;2.00;;;1.70;;
8399;SDS011;4237;47.030;15.396;2022-07-31T09:58:41;1.75;;;1.65;;
8399;SDS011;4237;47.030;15.396;2022-07-31T10:01:10;2.72;;;1.67;;
8399;SDS011;4237;47.030;15.396;2022-07-31T10:03:39;1.50;;;1.40;;
8399;SDS011;4237;47.030;15.396;2022-07-31T10:06:08;1.87;;;1.70;;
8399;SDS011;4237;47.030;15.396;2022-07-31T10:08:37;2.17;;;2.08;;
8399;SDS011;4237;47.030;15.396;2022-07-31T10:11:06;2.10;;;1.90;;
8399;SDS011;4237;47.030;15.396;2022-07-31T10:13:35;1.90;;;1.60;;
8399;SDS011;4237;47.030;15.396;2022-07-31T10:16:05;2.95;;;1.65;;
8399;SDS011;4237;47.030;15.396;2022-07-31T10:18:37;2.00;;;1.60;;
8399;SDS011;4237;47.030;15.396;2022-07-31T10:21:04;1.95;;;1.75;;
8399;SDS011;4237;47.030;15.396;2022-07-31T10:23:33;2.25;;;1.57;;
8399;SDS011;4237;47.030;15.396;2022-07-31T10:26:02;1.80;;;1.50;;
8399;SDS011;4237;47.030;15.396;2022-07-31T10:28:30;3.05;;;1.40;;
8399;SDS011;4237;47.030;15.396;2022-07-31T10:30:59;1.67;;;1.57;;
8399;SDS011;4237;47.030;15.396;2022-07-31T10:33:27;1.57;;;1.47;;
8399;SDS011;4237;47.030;15.396;2022-07-31T10:36:15;1.60;;;1.50;;
8399;SDS011;4237;47.030;15.396;2022-07-31T10:38:36;1.65;;;1.55;;
8399;SDS011;4237;47.030;15.396;2022-07-31T10:41:21;1.60;;;1.50;;
8399;SDS011;4237;47.030;15.396;2022-07-31T10:44:00;1.60;;;1.50;;
8399;SDS011;4237;47.030;15.396;2022-07-31T10:46:25;1.70;;;1.60;;
8399;SDS011;4237;47.030;15.396;2022-07-31T10:48:55;1.62;;;1.52;;
8399;SDS011;4237;47.030;15.396;2022-07-31T10:51:24;2.52;;;1.25;;
8399;SDS011;4237;47.030;15.396;2022-07-31T10:53:57;1.40;;;1.30;;
8399;SDS011;4237;47.030;15.396;2022-07-31T10:56:23;2.30;;;1.27;;
8399;SDS011;4237;47.030;15.396;2022-07-31T10:58:52;3.02;;;1.35;;
8399;SDS011;4237;47.030;15.396;2022-07-31T11:01:21;2.30;;;1.62;;
8399;SDS011;4237;47.030;15.396;2022-07-31T11:03:59;2.30;;;2.08;;
8399;SDS011;4237;47.030;15.396;2022-07-31T11:06:19;1.47;;;1.30;;
8399;SDS011;4237;47.030;15.396;2022-07-31T11:08:49;1.27;;;1.15;;
8399;SDS011;4237;47.030;15.396;2022-07-31T11:11:31;2.12;;;1.32;;
8399;SDS011;4237;47.030;15.396;2022-07-31T11:13:51;1.92;;;1.40;;
8399;SDS011;4237;47.030;15.396;2022-07-31T11:16:21;1.30;;;1.20;;
8399;SDS011;4237;47.030;15.396;2022-07-31T11:19:11;1.75;;;1.37;;
8399;SDS011;4237;47.030;15.396;2022-07-31T11:21:26;2.05;;;1.70;;
8399;SDS011;4237;47.030;15.396;2022-07-31T11:23:48;2.08;;;1.20;;
8399;SDS011;4237;47.030;15.396;2022-07-31T11:26:18;1.30;;;1.20;;
8399;SDS011;4237;47.030;15.396;2022-07-31T11:28:46;1.95;;;1.40;;
8399;SDS011;4237;47.030;15.396;2022-07-31T11:31:15;1.30;;;1.20;;
8399;SDS011;4237;47.030;15.396;2022-07-31T11:33:44;1.10;;;1.00;;
8399;SDS011;4237;47.030;15.396;2022-07-31T11:36:14;2.15;;;1.02;;
8399;SDS011;4237;47.030;15.396;2022-07-31T11:38:44;1.27;;;1.12;;
8399;SDS011;4237;47.030;15.396;2022-07-31T11:41:12;1.30;;;1.20;;
8399;SDS011;4237;47.030;15.396;2022-07-31T11:43:44;1.80;;;0.93;;
8399;SDS011;4237;47.030;15.396;2022-07-31T11:46:35;1.20;;;1.15;;
8399;SDS011;4237;47.030;15.396;2022-07-31T11:48:43;1.20;;;1.20;;
8399;SDS011;4237;47.030;15.396;2022-07-31T11:51:15;2.47;;;1.30;;
8399;SDS011;4237;47.030;15.396;2022-07-31T11:53:41;1.77;;;1.32;;
8399;SDS011;4237;47.030;15.396;2022-07-31T11:56:11;1.30;;;1.20;;
8399;SDS011;4237;47.030;15.396;2022-07-31T11:58:44;1.20;;;1.20;;
8399;SDS011;4237;47.030;15.396;2022-07-31T12:01:09;2.80;;;1.42;;
8399;SDS011;4237;47.030;15.396;2022-07-31T12:03:37;1.87;;;1.60;;
8399;SDS011;4237;47.030;15.396;2022-07-31T12:06:06;1.50;;;1.40;;
8399;SDS011;4237;47.030;15.396;2022-07-31T12:08:35;1.37;;;1.00;;
8399;SDS011;4237;47.030;15.396;2022-07-31T12:11:04;1.30;;;1.20;;
8399;SDS011;4237;47.030;15.396;2022-07-31T12:13:33;1.25;;;1.20;;
8399;SDS011;4237;47.030;15.396;2022-07-31T12:16:06;1.42;;;1.30;;
8399;SDS011;4237;47.030;15.396;2022-07-31T12:21:17;1.20;;;1.17;;
8399;SDS011;4237;47.030;15.396;2022-07-31T12:23:52;1.10;;;1.00;;
8399;SDS011;4237;47.030;15.396;2022-07-31T12:26:24;1.60;;;1.50;;
8399;SDS011;4237;47.030;15.396;2022-07-31T12:28:56;2.12;;;1.67;;
8399;SDS011;4237;47.030;15.396;2022-07-31T12:31:24;1.45;;;1.10;;
8399;SDS011;4237;47.030;15.396;2022-07-31T12:33:53;2.75;;;1.30;;
8399;SDS011;4237;47.030;15.396;2022-07-31T12:36:21;4.45;;;1.77;;
8399;SDS011;4237;47.030;15.396;2022-07-31T12:38:59;0.93;;;0.90;;
8399;SDS011;4237;47.030;15.396;2022-07-31T12:41:28;1.35;;;0.90;;
8399;SDS011;4237;47.030;15.396;2022-07-31T12:44:09;1.12;;;1.02;;
8399;SDS011;4237;47.030;15.396;2022-07-31T12:46:38;1.35;;;1.20;;
8399;SDS011;4237;47.030;15.396;2022-07-31T12:49:06;1.35;;;1.07;;
8399;SDS011;4237;47.030;15.396;2022-07-31T12:51:37;0.93;;;0.93;;
8399;SDS011;4237;47.030;15.396;2022-07-31T12:54:06;1.32;;;1.20;;
8399;SDS011;4237;47.030;15.396;2022-07-31T12:56:35;0.80;;;0.80;;
8399;SDS011;4237;47.030;15.396;2022-07-31T12:59:04;1.12;;;1.02;;
8399;SDS011;4237;47.030;15.396;2022-07-31T13:01:33;3.05;;;0.95;;
8399;SDS011;4237;47.030;15.396;2022-07-31T13:04:01;1.07;;;1.07;;
8399;SDS011;4237;47.030;15.396;2022-07-31T13:06:30;1.05;;;0.90;;
8399;SDS011;4237;47.030;15.396;2022-07-31T13:08:59;1.40;;;1.30;;
8399;SDS011;4237;47.030;15.396;2022-07-31T13:11:27;2.15;;;0.95;;
8399;SDS011;4237;47.030;15.396;2022-07-31T13:13:57;1.40;;;1.17;;
8399;SDS011;4237;47.030;15.396;2022-07-31T13:16:25;1.00;;;1.00;;
8399;SDS011;4237;47.030;15.396;2022-07-31T13:18:53;1.32;;;1.07;;
8399;SDS011;4237;47.030;15.396;2022-07-31T13:21:21;1.92;;;1.10;;
8399;SDS011;4237;47.030;15.396;2022-07-31T13:23:50;1.90;;;1.20;;
8399;SDS011;4237;47.030;15.396;2022-07-31T13:26:18;2.10;;;0.90;;
8399;SDS011;4237;47.030;15.396;2022-07-31T13:28:46;2.37;;;1.00;;
8399;SDS011;4237;47.030;15.396;2022-07-31T13:31:14;1.27;;;1.17;;
8399;SDS011;4237;47.030;15.396;2022-07-31T13:33:43;1.80;;;0.90;;
8399;SDS011;4237;47.030;15.396;2022-07-31T13:36:11;3.00;;;0.93;;
8399;SDS011;4237;47.030;15.396;2022-07-31T13:38:39;2.58;;;1.37;;
8399;SDS011;4237;47.030;15.396;2022-07-31T13:41:07;1.70;;;1.20;;
8399;SDS011;4237;47.030;15.396;2022-07-31T13:43:49;1.62;;;1.32;;
8399;SDS011;4237;47.030;15.396;2022-07-31T13:46:18;3.15;;;1.30;;
8399;SDS011;4237;47.030;15.396;2022-07-31T13:48:47;1.15;;;1.10;;
8399;SDS011;4237;47.030;15.396;2022-07-31T13:51:15;1.02;;;0.95;;
8399;SDS011;4237;47.030;15.396;2022-07-31T13:53:43;1.67;;;1.17;;
8399;SDS011;4237;47.030;15.396;2022-07-31T13:56:12;2.02;;;1.10;;
8399;SDS011;4237;47.030;15.396;2022-07-31T13:58:40;1.45;;;1.00;;
8399;SDS011;4237;47.030;15.396;2022-07-31T14:01:09;1.20;;;1.05;;
8399;SDS011;4237;47.030;15.396;2022-07-31T14:03:37;1.45;;;1.35;;
8399;SDS011;4237;47.030;15.396;2022-07-31T14:06:05;1.55;;;1.30;;
8399;SDS011;4237;47.030;15.396;2022-07-31T14:08:34;1.22;;;0.90;;
8399;SDS011;4237;47.030;15.396;2022-07-31T14:11:03;1.22;;;1.10;;
8399;SDS011;4237;47.030;15.396;2022-07-31T14:13:31;1.50;;;1.30;;
8399;SDS011;4237;47.030;15.396;2022-07-31T14:15:59;1.67;;;1.20;;
8399;SDS011;4237;47.030;15.396;2022-07-31T14:18:29;1.05;;;1.05;;
8399;SDS011;4237;47.030;15.396;2022-07-31T14:20:57;1.00;;;1.00;;
8399;SDS011;4237;47.030;15.396;2022-07-31T14:23:25;1.30;;;1.20;;
8399;SDS011;4237;47.030;15.396;2022-07-31T14:25:54;1.80;;;1.30;;
8399;SDS011;4237;47.030;15.396;2022-07-31T14:28:22;1.25;;;1.12;;
8399;SDS011;4237;47.030;15.396;2022-07-31T14:30:51;2.25;;;1.42;;
8399;SDS011;4237;47.030;15.396;2022-07-31T14:33:19;1.52;;;1.15;;
8399;SDS011;4237;47.030;15.396;2022-07-31T14:35:47;1.47;;;1.07;;
8399;SDS011;4237;47.030;15.396;2022-07-31T14:38:15;2.22;;;1.32;;
8399;SDS011;4237;47.030;15.396;2022-07-31T14:40:43;2.65;;;1.10;;
8399;SDS011;4237;47.030;15.396;2022-07-31T14:43:13;4.03;;;1.20;;
8399;SDS011;4237;47.030;15.396;2022-07-31T14:45:41;1.40;;;1.30;;
8399;SDS011;4237;47.030;15.396;2022-07-31T14:48:09;1.00;;;1.00;;
8399;SDS011;4237;47.030;15.396;2022-07-31T14:50:38;1.30;;;1.20;;
8399;SDS011;4237;47.030;15.396;2022-07-31T14:53:09;3.27;;;1.20;;
8399;SDS011;4237;47.030;15.396;2022-07-31T14:55:37;1.30;;;1.20;;
8399;SDS011;4237;47.030;15.396;2022-07-31T14:58:05;1.20;;;1.07;;
8399;SDS011;4237;47.030;15.396;2022-07-31T15:00:34;3.30;;;1.40;;
8399;SDS011;4237;47.030;15.396;2022-07-31T15:03:02;1.07;;;1.07;;
8399;SDS011;4237;47.030;15.396;2022-07-31T15:05:30;1.55;;;1.37;;
8399;SDS011;4237;47.030;15.396;2022-07-31T15:07:59;2.30;;;1.10;;
8399;SDS011;4237;47.030;15.396;2022-07-31T15:10:28;1.60;;;1.50;;
8399;SDS011;4237;47.030;15.396;2022-07-31T15:12:56;1.87;;;1.10;;
8399;SDS011;4237;47.030;15.396;2022-07-31T15:15:24;1.40;;;1.30;;
8399;SDS011;4237;47.030;15.396;2022-07-31T15:17:52;1.52;;;1.42;;
8399;SDS011;4237;47.030;15.396;2022-07-31T15:20:21;1.37;;;1.25;;
8399;SDS011;4237;47.030;15.396;2022-07-31T15:22:49;1.67;;;1.57;;
8399;SDS011;4237;47.030;15.396;2022-07-31T15:25:17;1.75;;;1.65;;
8399;SDS011;4237;47.030;15.396;2022-07-31T15:27:45;1.55;;;1.30;;
8399;SDS011;4237;47.030;15.396;2022-07-31T15:30:13;6.87;;;2.00;;
8399;SDS011;4237;47.030;15.396;2022-07-31T15:32:42;2.40;;;1.45;;
8399;SDS011;4237;47.030;15.396;2022-07-31T15:35:10;1.32;;;1.22;;
8399;SDS011;4237;47.030;15.396;2022-07-31T15:37:40;4.08;;;1.32;;
8399;SDS011;4237;47.030;15.396;2022-07-31T15:40:11;2.50;;;1.60;;
8399;SDS011;4237;47.030;15.396;2022-07-31T15:42:41;1.40;;;1.30;;
8399;SDS011;4237;47.030;15.396;2022-07-31T15:45:11;1.50;;;1.40;;